sensor_id;sensor_type;location;lat;lon;timestamp;temperature;humidity
674;DHT22;319;48.764;9.174;2024-01-11T00:01:22;-1.40;99.90
674;DHT22;319;48.764;9.174;2024-01-11T00:03:49;-1.10;99.90
674;DHT22;319;48.764;9.174;2024-01-11T00:06:16;-1.20;99.90
674;DHT22;319;48.764;9.174;2024-01-11T00:08:43;-1.10;99.90
674;DHT22;319;48.764;9.174;2024-01-11T00:11:10;-1.10;99.90
674;DHT22;319;48.764;9.174;2024-01-11T00:13:38;-1.10;99.90
674;DHT22;319;48.764;9.174;2024-01-11T00:16:05;-1.20;99.90
674;DHT22;319;48.764;9.174;2024-01-11T00:18:32;-1.20;99.90
674;DHT22;319;48.764;9.174;2024-01-11T00:20:59;-1.20;99.90
674;DHT22;319;48.764;9.174;2024-01-11T00:23:26;-1.20;99.90
674;DHT22;319;48.764;9.174;2024-01-11T00:25:53;-1.20;99.90
674;DHT22;319;48.764;9.174;2024-01-11T00:28:19;-1.30;99.90
674;DHT22;319;48.764;9.174;2024-01-11T00:30:48;-1.20;99.90
674;DHT22;319;48.764;9.174;2024-01-11T00:33:15;-1.20;99.90
674;DHT22;319;48.764;9.174;2024-01-11T00:35:42;-1.20;99.90
674;DHT22;319;48.764;9.174;2024-01-11T00:38:20;-1.30;99.90
674;DHT22;319;48.764;9.174;2024-01-11T00:40:47;-1.30;99.90
674;DHT22;319;48.764;9.174;2024-01-11T00:43:14;-1.20;99.90
674;DHT22;319;48.764;9.174;2024-01-11T00:45:41;-1.20;99.90
674;DHT22;319;48.764;9.174;2024-01-11T00:48:10;-1.30;99.90
674;DHT22;319;48.764;9.174;2024-01-11T00:50:37;-1.30;99.90
674;DHT22;319;48.764;9.174;2024-01-11T00:53:04;-1.40;99.90
674;DHT22;319;48.764;9.174;2024-01-11T00:55:31;-1.30;99.90
674;DHT22;319;48.764;9.174;2024-01-11T00:57:57;-1.40;99.90
674;DHT22;319;48.764;9.174;2024-01-11T01:00:24;-1.50;99.90
674;DHT22;319;48.764;9.174;2024-01-11T01:02:51;-1.40;99.90
674;DHT22;319;48.764;9.174;2024-01-11T01:05:19;-1.40;99.90
674;DHT22;319;48.764;9.174;2024-01-11T01:07:46;-1.40;99.90
674;DHT22;319;48.764;9.174;2024-01-11T01:10:13;-1.50;99.90
674;DHT22;319;48.764;9.174;2024-01-11T01:12:40;-1.50;99.90
674;DHT22;319;48.764;9.174;2024-01-11T01:15:07;-1.40;99.90
674;DHT22;319;48.764;9.174;2024-01-11T01:17:34;-1.50;99.90
674;DHT22;319;48.764;9.174;2024-01-11T01:20:01;-1.50;99.90
674;DHT22;319;48.764;9.174;2024-01-11T01:22:30;-1.50;99.90
674;DHT22;319;48.764;9.174;2024-01-11T01:24:56;-1.50;99.90
674;DHT22;319;48.764;9.174;2024-01-11T01:27:23;-1.50;99.90
674;DHT22;319;48.764;9.174;2024-01-11T01:29:50;-1.30;99.90
674;DHT22;319;48.764;9.174;2024-01-11T01:32:17;-1.30;99.90
674;DHT22;319;48.764;9.174;2024-01-11T01:34:44;-1.40;99.90
674;DHT22;319;48.764;9.174;2024-01-11T01:37:11;-1.50;99.90
674;DHT22;319;48.764;9.174;2024-01-11T01:39:39;-1.60;99.90
674;DHT22;319;48.764;9.174;2024-01-11T01:42:06;-1.60;99.90
674;DHT22;319;48.764;9.174;2024-01-11T01:44:33;-1.60;99.90
674;DHT22;319;48.764;9.174;2024-01-11T01:47:00;-1.70;99.90
674;DHT22;319;48.764;9.174;2024-01-11T01:49:27;-1.60;99.90
674;DHT22;319;48.764;9.174;2024-01-11T01:51:54;-1.60;99.90
674;DHT22;319;48.764;9.174;2024-01-11T01:54:23;-1.60;99.90
674;DHT22;319;48.764;9.174;2024-01-11T01:56:52;-1.60;99.90
674;DHT22;319;48.764;9.174;2024-01-11T01:59:19;-1.60;99.90
674;DHT22;319;48.764;9.174;2024-01-11T02:01:47;-1.60;99.90
674;DHT22;319;48.764;9.174;2024-01-11T02:04:13;-1.60;99.90
674;DHT22;319;48.764;9.174;2024-01-11T02:06:41;-1.50;99.90
674;DHT22;319;48.764;9.174;2024-01-11T02:09:11;-1.50;99.90
674;DHT22;319;48.764;9.174;2024-01-11T02:11:41;-1.40;99.90
674;DHT22;319;48.764;9.174;2024-01-11T02:14:10;-1.50;99.90
674;DHT22;319;48.764;9.174;2024-01-11T02:16:37;-1.50;99.90
674;DHT22;319;48.764;9.174;2024-01-11T02:19:04;-1.60;99.90
674;DHT22;319;48.764;9.174;2024-01-11T02:21:33;-1.40;99.90
674;DHT22;319;48.764;9.174;2024-01-11T02:24:06;-1.40;99.90
674;DHT22;319;48.764;9.174;2024-01-11T02:26:33;-1.50;99.90
674;DHT22;319;48.764;9.174;2024-01-11T02:29:00;-1.50;99.90
674;DHT22;319;48.764;9.174;2024-01-11T02:31:27;-1.10;99.90
674;DHT22;319;48.764;9.174;2024-01-11T02:33:54;-1.60;99.90
674;DHT22;319;48.764;9.174;2024-01-11T02:36:22;-1.60;99.90
674;DHT22;319;48.764;9.174;2024-01-11T02:38:49;-1.60;99.90
674;DHT22;319;48.764;9.174;2024-01-11T02:41:18;-1.70;99.90
674;DHT22;319;48.764;9.174;2024-01-11T02:43:47;-1.70;99.90
674;DHT22;319;48.764;9.174;2024-01-11T02:46:14;-1.70;99.90
674;DHT22;319;48.764;9.174;2024-01-11T02:48:41;-1.80;99.90
674;DHT22;319;48.764;9.174;2024-01-11T02:51:08;-1.70;99.90
674;DHT22;319;48.764;9.174;2024-01-11T02:53:34;-1.70;99.90
674;DHT22;319;48.764;9.174;2024-01-11T02:56:01;-1.70;99.90
674;DHT22;319;48.764;9.174;2024-01-11T02:58:29;-1.70;99.90
674;DHT22;319;48.764;9.174;2024-01-11T03:00:56;-1.70;99.90
674;DHT22;319;48.764;9.174;2024-01-11T03:03:23;-1.70;99.90
674;DHT22;319;48.764;9.174;2024-01-11T03:05:49;-1.60;99.90
674;DHT22;319;48.764;9.174;2024-01-11T03:08:16;-1.70;99.90
674;DHT22;319;48.764;9.174;2024-01-11T03:10:43;-1.70;99.90
674;DHT22;319;48.764;9.174;2024-01-11T03:13:10;-1.70;99.90
674;DHT22;319;48.764;9.174;2024-01-11T03:15:39;-1.70;99.90
674;DHT22;319;48.764;9.174;2024-01-11T03:18:06;-1.70;99.90
674;DHT22;319;48.764;9.174;2024-01-11T03:20:33;-1.70;99.90
674;DHT22;319;48.764;9.174;2024-01-11T03:23:00;-1.80;99.90
674;DHT22;319;48.764;9.174;2024-01-11T03:25:27;-1.80;99.90
674;DHT22;319;48.764;9.174;2024-01-11T03:27:53;-1.80;99.90
674;DHT22;319;48.764;9.174;2024-01-11T03:30:20;-1.90;99.90
674;DHT22;319;48.764;9.174;2024-01-11T03:32:48;-1.90;99.90
674;DHT22;319;48.764;9.174;2024-01-11T03:35:15;-1.90;99.90
674;DHT22;319;48.764;9.174;2024-01-11T03:37:42;-1.90;99.90
674;DHT22;319;48.764;9.174;2024-01-11T03:40:09;-1.90;99.90
674;DHT22;319;48.764;9.174;2024-01-11T03:42:36;-1.90;99.90
674;DHT22;319;48.764;9.174;2024-01-11T03:45:04;-1.90;99.90
674;DHT22;319;48.764;9.174;2024-01-11T03:47:31;-1.80;99.90
674;DHT22;319;48.764;9.174;2024-01-11T03:49:59;-1.90;99.90
674;DHT22;319;48.764;9.174;2024-01-11T03:52:25;-1.80;99.90
674;DHT22;319;48.764;9.174;2024-01-11T03:54:52;-1.80;99.90
674;DHT22;319;48.764;9.174;2024-01-11T03:57:19;-1.80;99.90
674;DHT22;319;48.764;9.174;2024-01-11T03:59:46;-1.90;99.90
674;DHT22;319;48.764;9.174;2024-01-11T04:02:13;-1.90;99.90
674;DHT22;319;48.764;9.174;2024-01-11T04:04:40;-1.90;99.90
674;DHT22;319;48.764;9.174;2024-01-11T04:07:09;-1.90;99.90
674;DHT22;319;48.764;9.174;2024-01-11T04:09:37;-2.00;99.90
674;DHT22;319;48.764;9.174;2024-01-11T04:12:04;-2.00;99.90
674;DHT22;319;48.764;9.174;2024-01-11T04:14:31;-2.10;99.90
674;DHT22;319;48.764;9.174;2024-01-11T04:16:58;-2.00;99.90
674;DHT22;319;48.764;9.174;2024-01-11T04:19:25;-2.10;99.90
674;DHT22;319;48.764;9.174;2024-01-11T04:21:51;-2.10;99.90
674;DHT22;319;48.764;9.174;2024-01-11T04:24:20;-2.10;99.90
674;DHT22;319;48.764;9.174;2024-01-11T04:26:47;-2.10;99.90
674;DHT22;319;48.764;9.174;2024-01-11T04:29:13;-2.10;99.90
674;DHT22;319;48.764;9.174;2024-01-11T04:31:40;-2.10;99.90
674;DHT22;319;48.764;9.174;2024-01-11T04:34:07;-2.20;99.90
674;DHT22;319;48.764;9.174;2024-01-11T04:36:37;-2.20;99.90
674;DHT22;319;48.764;9.174;2024-01-11T04:39:04;-2.30;99.90
674;DHT22;319;48.764;9.174;2024-01-11T04:41:35;-2.30;99.90
674;DHT22;319;48.764;9.174;2024-01-11T04:44:01;-2.20;99.90
674;DHT22;319;48.764;9.174;2024-01-11T04:46:28;-2.20;99.90
674;DHT22;319;48.764;9.174;2024-01-11T04:48:55;-2.20;99.90
674;DHT22;319;48.764;9.174;2024-01-11T04:51:22;-2.30;99.90
674;DHT22;319;48.764;9.174;2024-01-11T04:53:49;-2.30;99.90
674;DHT22;319;48.764;9.174;2024-01-11T04:56:16;-2.30;99.90
674;DHT22;319;48.764;9.174;2024-01-11T04:58:45;-2.40;99.90
674;DHT22;319;48.764;9.174;2024-01-11T05:01:13;-2.30;99.90
674;DHT22;319;48.764;9.174;2024-01-11T05:03:40;-2.30;99.90
674;DHT22;319;48.764;9.174;2024-01-11T05:06:07;-2.30;99.90
674;DHT22;319;48.764;9.174;2024-01-11T05:08:34;-2.20;99.90
674;DHT22;319;48.764;9.174;2024-01-11T05:11:00;-2.20;99.90
674;DHT22;319;48.764;9.174;2024-01-11T05:13:27;-2.20;99.90
674;DHT22;319;48.764;9.174;2024-01-11T05:15:55;-2.20;99.90
674;DHT22;319;48.764;9.174;2024-01-11T05:18:22;-2.10;99.90
674;DHT22;319;48.764;9.174;2024-01-11T05:20:49;-2.10;99.90
674;DHT22;319;48.764;9.174;2024-01-11T05:23:16;-2.10;99.90
674;DHT22;319;48.764;9.174;2024-01-11T05:25:42;-2.00;99.90
674;DHT22;319;48.764;9.174;2024-01-11T05:28:09;-2.10;99.90
674;DHT22;319;48.764;9.174;2024-01-11T05:30:36;-2.20;99.90
674;DHT22;319;48.764;9.174;2024-01-11T05:33:04;-2.10;99.90
674;DHT22;319;48.764;9.174;2024-01-11T05:35:31;-2.10;99.90
674;DHT22;319;48.764;9.174;2024-01-11T05:37:58;-2.10;99.90
674;DHT22;319;48.764;9.174;2024-01-11T05:40:25;-2.20;99.90
674;DHT22;319;48.764;9.174;2024-01-11T05:42:52;-2.20;99.90
674;DHT22;319;48.764;9.174;2024-01-11T05:45:19;-2.20;99.90
674;DHT22;319;48.764;9.174;2024-01-11T05:47:46;-2.20;99.90
674;DHT22;319;48.764;9.174;2024-01-11T05:50:15;-2.20;99.90
674;DHT22;319;48.764;9.174;2024-01-11T05:52:42;-2.30;99.90
674;DHT22;319;48.764;9.174;2024-01-11T05:55:09;-2.20;99.90
674;DHT22;319;48.764;9.174;2024-01-11T05:57:38;-2.30;99.90
674;DHT22;319;48.764;9.174;2024-01-11T06:00:06;-2.30;99.90
674;DHT22;319;48.764;9.174;2024-01-11T06:02:33;-2.30;99.90
674;DHT22;319;48.764;9.174;2024-01-11T06:05:00;-2.30;99.90
674;DHT22;319;48.764;9.174;2024-01-11T06:07:28;-2.30;99.90
674;DHT22;319;48.764;9.174;2024-01-11T06:09:55;-2.20;99.90
674;DHT22;319;48.764;9.174;2024-01-11T06:12:21;-2.30;99.90
674;DHT22;319;48.764;9.174;2024-01-11T06:14:48;-2.30;99.90
674;DHT22;319;48.764;9.174;2024-01-11T06:17:15;-2.40;99.90
674;DHT22;319;48.764;9.174;2024-01-11T06:19:42;-2.30;99.90
674;DHT22;319;48.764;9.174;2024-01-11T06:22:09;-2.40;99.90
674;DHT22;319;48.764;9.174;2024-01-11T06:24:37;-2.30;99.90
674;DHT22;319;48.764;9.174;2024-01-11T06:27:04;-2.30;99.90
674;DHT22;319;48.764;9.174;2024-01-11T06:29:32;-2.30;99.90
674;DHT22;319;48.764;9.174;2024-01-11T06:31:58;-2.30;99.90
674;DHT22;319;48.764;9.174;2024-01-11T06:34:25;-2.30;99.90
674;DHT22;319;48.764;9.174;2024-01-11T06:36:53;-2.40;99.90
674;DHT22;319;48.764;9.174;2024-01-11T06:39:20;-2.40;99.90
674;DHT22;319;48.764;9.174;2024-01-11T06:41:48;-2.30;99.90
674;DHT22;319;48.764;9.174;2024-01-11T06:44:15;-2.30;99.90
674;DHT22;319;48.764;9.174;2024-01-11T06:46:43;-2.30;99.90
674;DHT22;319;48.764;9.174;2024-01-11T06:49:10;-2.40;99.90
674;DHT22;319;48.764;9.174;2024-01-11T06:51:37;-2.40;99.90
674;DHT22;319;48.764;9.174;2024-01-11T06:54:04;-2.40;99.90
674;DHT22;319;48.764;9.174;2024-01-11T06:56:31;-2.30;99.90
674;DHT22;319;48.764;9.174;2024-01-11T06:58:59;-2.40;99.90
674;DHT22;319;48.764;9.174;2024-01-11T07:01:26;-2.40;99.90
674;DHT22;319;48.764;9.174;2024-01-11T07:03:52;-2.40;99.90
674;DHT22;319;48.764;9.174;2024-01-11T07:06:19;-2.40;99.90
674;DHT22;319;48.764;9.174;2024-01-11T07:08:46;-2.40;99.90
674;DHT22;319;48.764;9.174;2024-01-11T07:11:13;-2.30;99.90
674;DHT22;319;48.764;9.174;2024-01-11T07:13:40;-2.30;99.90
674;DHT22;319;48.764;9.174;2024-01-11T07:16:08;-2.30;99.90
674;DHT22;319;48.764;9.174;2024-01-11T07:18:34;-2.30;99.90
674;DHT22;319;48.764;9.174;2024-01-11T07:21:01;-2.20;99.90
674;DHT22;319;48.764;9.174;2024-01-11T07:23:29;-2.20;99.90
674;DHT22;319;48.764;9.174;2024-01-11T07:25:55;-2.30;99.90
674;DHT22;319;48.764;9.174;2024-01-11T07:28:22;-2.30;99.90
674;DHT22;319;48.764;9.174;2024-01-11T07:30:51;-2.10;99.90
674;DHT22;319;48.764;9.174;2024-01-11T07:33:20;-2.20;99.90
674;DHT22;319;48.764;9.174;2024-01-11T07:35:47;-2.10;99.90
674;DHT22;319;48.764;9.174;2024-01-11T07:38:13;-2.20;99.90
674;DHT22;319;48.764;9.174;2024-01-11T07:40:44;-2.20;99.90
674;DHT22;319;48.764;9.174;2024-01-11T07:43:11;-2.20;99.90
674;DHT22;319;48.764;9.174;2024-01-11T07:45:39;-2.20;99.90
674;DHT22;319;48.764;9.174;2024-01-11T07:48:09;-2.20;99.90
674;DHT22;319;48.764;9.174;2024-01-11T07:50:37;-2.30;99.90
674;DHT22;319;48.764;9.174;2024-01-11T07:53:04;-2.30;99.90
674;DHT22;319;48.764;9.174;2024-01-11T07:55:32;-2.30;99.90
674;DHT22;319;48.764;9.174;2024-01-11T07:57:58;-2.30;99.90
674;DHT22;319;48.764;9.174;2024-01-11T08:00:25;-2.20;99.90
674;DHT22;319;48.764;9.174;2024-01-11T08:02:52;-2.20;99.90
674;DHT22;319;48.764;9.174;2024-01-11T08:05:19;-2.00;99.90
674;DHT22;319;48.764;9.174;2024-01-11T08:07:48;-2.00;99.90
674;DHT22;319;48.764;9.174;2024-01-11T08:10:15;-2.00;99.90
674;DHT22;319;48.764;9.174;2024-01-11T08:12:42;-2.00;99.90
674;DHT22;319;48.764;9.174;2024-01-11T08:15:09;-1.80;99.90
674;DHT22;319;48.764;9.174;2024-01-11T08:17:38;-1.90;99.90
674;DHT22;319;48.764;9.174;2024-01-11T08:20:05;-1.80;99.90
674;DHT22;319;48.764;9.174;2024-01-11T08:22:33;-1.70;99.90
674;DHT22;319;48.764;9.174;2024-01-11T08:25:03;-1.10;99.90
674;DHT22;319;48.764;9.174;2024-01-11T08:27:31;-1.60;99.90
674;DHT22;319;48.764;9.174;2024-01-11T08:29:58;-1.50;99.90
674;DHT22;319;48.764;9.174;2024-01-11T08:32:25;-1.50;99.90
674;DHT22;319;48.764;9.174;2024-01-11T08:34:52;-1.50;99.90
674;DHT22;319;48.764;9.174;2024-01-11T08:37:19;-1.40;99.90
674;DHT22;319;48.764;9.174;2024-01-11T08:39:45;-1.40;99.90
674;DHT22;319;48.764;9.174;2024-01-11T08:42:14;-1.40;99.90
674;DHT22;319;48.764;9.174;2024-01-11T08:44:41;-1.40;99.90
674;DHT22;319;48.764;9.174;2024-01-11T08:47:08;-1.40;99.90
674;DHT22;319;48.764;9.174;2024-01-11T08:49:36;-1.40;99.90
674;DHT22;319;48.764;9.174;2024-01-11T08:52:04;-1.40;99.90
674;DHT22;319;48.764;9.174;2024-01-11T08:54:31;-1.40;99.90
674;DHT22;319;48.764;9.174;2024-01-11T08:56:58;-1.30;99.90
674;DHT22;319;48.764;9.174;2024-01-11T08:59:26;-1.20;99.90
674;DHT22;319;48.764;9.174;2024-01-11T09:01:53;-1.10;99.90
674;DHT22;319;48.764;9.174;2024-01-11T09:04:20;-0.90;99.90
674;DHT22;319;48.764;9.174;2024-01-11T09:06:46;-1.00;99.90
674;DHT22;319;48.764;9.174;2024-01-11T09:09:13;-0.80;99.90
674;DHT22;319;48.764;9.174;2024-01-11T09:11:41;-0.70;99.90
674;DHT22;319;48.764;9.174;2024-01-11T09:14:07;-0.60;99.90
674;DHT22;319;48.764;9.174;2024-01-11T09:16:37;-0.50;99.90
674;DHT22;319;48.764;9.174;2024-01-11T09:19:05;-0.40;99.90
674;DHT22;319;48.764;9.174;2024-01-11T09:21:32;-0.30;99.90
674;DHT22;319;48.764;9.174;2024-01-11T09:23:58;-0.60;99.90
674;DHT22;319;48.764;9.174;2024-01-11T09:26:25;-0.20;99.90
674;DHT22;319;48.764;9.174;2024-01-11T09:28:52;-0.30;99.90
674;DHT22;319;48.764;9.174;2024-01-11T09:31:19;-0.20;99.90
674;DHT22;319;48.764;9.174;2024-01-11T09:33:47;-0.10;99.90
674;DHT22;319;48.764;9.174;2024-01-11T09:36:15;0.00;99.90
674;DHT22;319;48.764;9.174;2024-01-11T09:38:42;0.20;99.70
674;DHT22;319;48.764;9.174;2024-01-11T09:41:12;0.30;99.50
674;DHT22;319;48.764;9.174;2024-01-11T09:43:41;0.20;99.00
674;DHT22;319;48.764;9.174;2024-01-11T09:46:09;0.30;98.80
674;DHT22;319;48.764;9.174;2024-01-11T09:48:39;0.40;98.70
674;DHT22;319;48.764;9.174;2024-01-11T09:51:10;0.30;99.00
674;DHT22;319;48.764;9.174;2024-01-11T09:53:38;0.30;98.60
674;DHT22;319;48.764;9.174;2024-01-11T09:56:07;0.20;98.50
674;DHT22;319;48.764;9.174;2024-01-11T09:58:34;0.20;98.40
674;DHT22;319;48.764;9.174;2024-01-11T10:01:02;0.20;98.40
674;DHT22;319;48.764;9.174;2024-01-11T10:03:30;0.30;98.50
674;DHT22;319;48.764;9.174;2024-01-11T10:05:58;0.40;98.40
674;DHT22;319;48.764;9.174;2024-01-11T10:08:27;0.50;98.20
674;DHT22;319;48.764;9.174;2024-01-11T10:10:54;0.50;98.00
674;DHT22;319;48.764;9.174;2024-01-11T10:13:26;0.70;97.90
674;DHT22;319;48.764;9.174;2024-01-11T10:16:05;0.60;97.70
674;DHT22;319;48.764;9.174;2024-01-11T10:18:31;0.60;97.60
674;DHT22;319;48.764;9.174;2024-01-11T10:20:58;0.60;97.70
674;DHT22;319;48.764;9.174;2024-01-11T10:23:26;0.70;97.80
674;DHT22;319;48.764;9.174;2024-01-11T10:25:55;0.80;97.60
674;DHT22;319;48.764;9.174;2024-01-11T10:28:22;0.90;97.60
674;DHT22;319;48.764;9.174;2024-01-11T10:30:50;0.90;97.60
674;DHT22;319;48.764;9.174;2024-01-11T10:33:19;0.90;97.30
674;DHT22;319;48.764;9.174;2024-01-11T10:35:46;1.10;97.30
674;DHT22;319;48.764;9.174;2024-01-11T10:38:14;1.40;97.20
674;DHT22;319;48.764;9.174;2024-01-11T10:40:43;1.60;96.80
674;DHT22;319;48.764;9.174;2024-01-11T10:43:11;1.60;96.50
674;DHT22;319;48.764;9.174;2024-01-11T10:45:38;1.70;96.20
674;DHT22;319;48.764;9.174;2024-01-11T10:48:07;1.80;96.10
674;DHT22;319;48.764;9.174;2024-01-11T10:50:44;1.80;95.80
674;DHT22;319;48.764;9.174;2024-01-11T10:53:25;1.60;95.50
674;DHT22;319;48.764;9.174;2024-01-11T10:55:57;1.70;95.60
674;DHT22;319;48.764;9.174;2024-01-11T10:58:26;1.70;95.60
674;DHT22;319;48.764;9.174;2024-01-11T11:00:54;1.70;95.70
674;DHT22;319;48.764;9.174;2024-01-11T11:03:22;1.60;95.50
674;DHT22;319;48.764;9.174;2024-01-11T11:05:50;1.70;95.80
674;DHT22;319;48.764;9.174;2024-01-11T11:08:19;1.70;95.70
674;DHT22;319;48.764;9.174;2024-01-11T11:10:48;1.70;95.50
674;DHT22;319;48.764;9.174;2024-01-11T11:13:17;1.70;95.60
674;DHT22;319;48.764;9.174;2024-01-11T11:15:45;1.70;95.50
674;DHT22;319;48.764;9.174;2024-01-11T11:18:15;1.70;95.50
674;DHT22;319;48.764;9.174;2024-01-11T11:20:46;1.60;95.20
674;DHT22;319;48.764;9.174;2024-01-11T11:23:15;1.90;95.90
674;DHT22;319;48.764;9.174;2024-01-11T11:25:44;1.50;96.00
674;DHT22;319;48.764;9.174;2024-01-11T11:28:11;1.70;95.30
674;DHT22;319;48.764;9.174;2024-01-11T11:30:41;1.60;95.20
674;DHT22;319;48.764;9.174;2024-01-11T11:33:09;1.70;95.40
674;DHT22;319;48.764;9.174;2024-01-11T11:35:36;1.80;95.30
674;DHT22;319;48.764;9.174;2024-01-11T11:38:03;2.00;95.40
674;DHT22;319;48.764;9.174;2024-01-11T11:40:37;2.00;95.10
674;DHT22;319;48.764;9.174;2024-01-11T11:43:05;1.80;94.60
674;DHT22;319;48.764;9.174;2024-01-11T11:45:32;1.70;94.90
674;DHT22;319;48.764;9.174;2024-01-11T11:48:01;1.70;95.20
674;DHT22;319;48.764;9.174;2024-01-11T11:50:30;2.00;99.90
674;DHT22;319;48.764;9.174;2024-01-11T11:52:57;2.00;95.00
674;DHT22;319;48.764;9.174;2024-01-11T11:55:25;2.10;94.70
674;DHT22;319;48.764;9.174;2024-01-11T11:57:52;2.00;94.60
674;DHT22;319;48.764;9.174;2024-01-11T12:00:20;1.90;94.60
674;DHT22;319;48.764;9.174;2024-01-11T12:02:47;1.80;94.90
674;DHT22;319;48.764;9.174;2024-01-11T12:05:16;1.80;95.10
674;DHT22;319;48.764;9.174;2024-01-11T12:07:44;1.90;95.30
674;DHT22;319;48.764;9.174;2024-01-11T12:10:11;2.00;95.30
674;DHT22;319;48.764;9.174;2024-01-11T12:12:38;2.00;95.10
674;DHT22;319;48.764;9.174;2024-01-11T12:15:06;2.00;99.90
674;DHT22;319;48.764;9.174;2024-01-11T12:17:34;2.00;95.00
674;DHT22;319;48.764;9.174;2024-01-11T12:20:00;2.30;95.20
674;DHT22;319;48.764;9.174;2024-01-11T12:22:29;2.30;95.30
674;DHT22;319;48.764;9.174;2024-01-11T12:24:56;2.30;94.80
674;DHT22;319;48.764;9.174;2024-01-11T12:27:23;2.40;94.60
674;DHT22;319;48.764;9.174;2024-01-11T12:29:49;2.50;94.50
674;DHT22;319;48.764;9.174;2024-01-11T12:32:17;2.50;94.60
674;DHT22;319;48.764;9.174;2024-01-11T12:34:46;2.50;94.30
674;DHT22;319;48.764;9.174;2024-01-11T12:37:15;2.40;94.30
674;DHT22;319;48.764;9.174;2024-01-11T12:39:43;2.50;94.50
674;DHT22;319;48.764;9.174;2024-01-11T12:42:10;2.60;94.40
674;DHT22;319;48.764;9.174;2024-01-11T12:44:37;2.50;94.20
674;DHT22;319;48.764;9.174;2024-01-11T12:47:05;2.60;94.20
674;DHT22;319;48.764;9.174;2024-01-11T12:49:34;2.60;94.20
674;DHT22;319;48.764;9.174;2024-01-11T12:52:02;2.60;94.20
674;DHT22;319;48.764;9.174;2024-01-11T12:54:32;2.60;94.00
674;DHT22;319;48.764;9.174;2024-01-11T12:57:01;2.60;93.90
674;DHT22;319;48.764;9.174;2024-01-11T12:59:28;2.50;93.90
674;DHT22;319;48.764;9.174;2024-01-11T13:01:55;2.50;94.00
674;DHT22;319;48.764;9.174;2024-01-11T13:04:24;2.50;93.90
674;DHT22;319;48.764;9.174;2024-01-11T13:06:51;2.50;93.90
674;DHT22;319;48.764;9.174;2024-01-11T13:09:19;2.50;93.90
674;DHT22;319;48.764;9.174;2024-01-11T13:11:46;2.50;93.90
674;DHT22;319;48.764;9.174;2024-01-11T13:14:14;2.40;93.90
674;DHT22;319;48.764;9.174;2024-01-11T13:16:44;2.40;93.90
674;DHT22;319;48.764;9.174;2024-01-11T13:19:12;2.50;94.00
674;DHT22;319;48.764;9.174;2024-01-11T13:21:38;2.40;94.00
674;DHT22;319;48.764;9.174;2024-01-11T13:24:06;2.40;94.20
674;DHT22;319;48.764;9.174;2024-01-11T13:26:34;2.40;94.40
674;DHT22;319;48.764;9.174;2024-01-11T13:29:02;2.50;94.30
674;DHT22;319;48.764;9.174;2024-01-11T13:31:30;2.50;94.50
674;DHT22;319;48.764;9.174;2024-01-11T13:33:57;2.50;94.20
674;DHT22;319;48.764;9.174;2024-01-11T13:36:24;2.50;94.10
674;DHT22;319;48.764;9.174;2024-01-11T13:38:51;2.50;94.20
674;DHT22;319;48.764;9.174;2024-01-11T13:41:18;2.50;94.20
674;DHT22;319;48.764;9.174;2024-01-11T13:43:45;2.60;94.20
674;DHT22;319;48.764;9.174;2024-01-11T13:46:12;2.50;94.20
674;DHT22;319;48.764;9.174;2024-01-11T13:48:45;2.50;94.40
674;DHT22;319;48.764;9.174;2024-01-11T13:51:11;2.50;94.50
674;DHT22;319;48.764;9.174;2024-01-11T13:53:39;2.60;94.50
674;DHT22;319;48.764;9.174;2024-01-11T13:56:06;2.60;94.30
674;DHT22;319;48.764;9.174;2024-01-11T13:58:33;2.50;94.30
674;DHT22;319;48.764;9.174;2024-01-11T14:01:00;2.60;94.50
674;DHT22;319;48.764;9.174;2024-01-11T14:03:27;2.50;94.50
674;DHT22;319;48.764;9.174;2024-01-11T14:05:55;2.50;94.60
674;DHT22;319;48.764;9.174;2024-01-11T14:08:22;2.50;94.60
674;DHT22;319;48.764;9.174;2024-01-11T14:10:49;2.50;94.60
674;DHT22;319;48.764;9.174;2024-01-11T14:13:16;2.50;94.60
674;DHT22;319;48.764;9.174;2024-01-11T14:15:42;2.50;94.70
674;DHT22;319;48.764;9.174;2024-01-11T14:18:10;2.50;94.70
674;DHT22;319;48.764;9.174;2024-01-11T14:20:37;2.50;94.60
674;DHT22;319;48.764;9.174;2024-01-11T14:23:05;2.50;94.70
674;DHT22;319;48.764;9.174;2024-01-11T14:25:31;2.50;94.70
674;DHT22;319;48.764;9.174;2024-01-11T14:27:58;2.50;94.80
674;DHT22;319;48.764;9.174;2024-01-11T14:30:26;2.50;94.80
674;DHT22;319;48.764;9.174;2024-01-11T14:32:53;2.50;95.00
674;DHT22;319;48.764;9.174;2024-01-11T14:35:20;2.50;94.80
674;DHT22;319;48.764;9.174;2024-01-11T14:37:47;2.50;95.10
674;DHT22;319;48.764;9.174;2024-01-11T14:40:15;2.50;94.80
674;DHT22;319;48.764;9.174;2024-01-11T14:42:42;2.50;94.90
674;DHT22;319;48.764;9.174;2024-01-11T14:45:09;2.50;94.90
674;DHT22;319;48.764;9.174;2024-01-11T14:47:36;2.50;95.00
674;DHT22;319;48.764;9.174;2024-01-11T14:50:04;2.50;94.80
674;DHT22;319;48.764;9.174;2024-01-11T14:52:35;2.50;95.00
674;DHT22;319;48.764;9.174;2024-01-11T14:55:01;2.50;95.10
674;DHT22;319;48.764;9.174;2024-01-11T14:57:30;2.50;95.20
674;DHT22;319;48.764;9.174;2024-01-11T14:59:57;2.50;95.20
674;DHT22;319;48.764;9.174;2024-01-11T15:02:24;2.50;95.10
674;DHT22;319;48.764;9.174;2024-01-11T15:04:51;2.50;95.30
674;DHT22;319;48.764;9.174;2024-01-11T15:07:18;2.50;95.40
674;DHT22;319;48.764;9.174;2024-01-11T15:09:45;2.50;95.10
674;DHT22;319;48.764;9.174;2024-01-11T15:12:12;2.50;95.20
674;DHT22;319;48.764;9.174;2024-01-11T15:14:40;2.40;95.10
674;DHT22;319;48.764;9.174;2024-01-11T15:17:07;2.40;95.20
674;DHT22;319;48.764;9.174;2024-01-11T15:19:33;2.40;95.20
674;DHT22;319;48.764;9.174;2024-01-11T15:22:00;2.30;95.40
674;DHT22;319;48.764;9.174;2024-01-11T15:24:27;2.30;95.40
674;DHT22;319;48.764;9.174;2024-01-11T15:26:55;2.30;95.50
674;DHT22;319;48.764;9.174;2024-01-11T15:29:22;2.30;95.70
674;DHT22;319;48.764;9.174;2024-01-11T15:31:50;2.30;95.80
674;DHT22;319;48.764;9.174;2024-01-11T15:34:17;2.30;95.70
674;DHT22;319;48.764;9.174;2024-01-11T15:36:44;2.20;95.70
674;DHT22;319;48.764;9.174;2024-01-11T15:39:10;2.20;95.90
674;DHT22;319;48.764;9.174;2024-01-11T15:41:37;2.10;95.90
674;DHT22;319;48.764;9.174;2024-01-11T15:44:04;2.00;96.10
674;DHT22;319;48.764;9.174;2024-01-11T15:46:31;1.90;96.40
674;DHT22;319;48.764;9.174;2024-01-11T15:48:59;1.90;96.80
674;DHT22;319;48.764;9.174;2024-01-11T15:51:26;1.90;96.40
674;DHT22;319;48.764;9.174;2024-01-11T15:53:53;1.80;96.50
674;DHT22;319;48.764;9.174;2024-01-11T15:56:20;1.80;96.60
674;DHT22;319;48.764;9.174;2024-01-11T15:58:47;1.80;96.70
674;DHT22;319;48.764;9.174;2024-01-11T16:01:14;1.70;96.80
674;DHT22;319;48.764;9.174;2024-01-11T16:03:40;1.70;96.90
674;DHT22;319;48.764;9.174;2024-01-11T16:06:09;1.70;96.90
674;DHT22;319;48.764;9.174;2024-01-11T16:08:36;1.70;96.80
674;DHT22;319;48.764;9.174;2024-01-11T16:11:03;1.70;96.70
674;DHT22;319;48.764;9.174;2024-01-11T16:13:30;1.60;96.90
674;DHT22;319;48.764;9.174;2024-01-11T16:15:57;1.50;97.30
674;DHT22;319;48.764;9.174;2024-01-11T16:18:25;1.50;97.50
674;DHT22;319;48.764;9.174;2024-01-11T16:20:52;1.40;97.60
674;DHT22;319;48.764;9.174;2024-01-11T16:23:21;1.30;97.90
674;DHT22;319;48.764;9.174;2024-01-11T16:25:48;1.20;98.10
674;DHT22;319;48.764;9.174;2024-01-11T16:28:15;1.20;98.30
674;DHT22;319;48.764;9.174;2024-01-11T16:30:42;1.10;98.40
674;DHT22;319;48.764;9.174;2024-01-11T16:33:10;1.10;98.50
674;DHT22;319;48.764;9.174;2024-01-11T16:35:37;1.10;98.70
674;DHT22;319;48.764;9.174;2024-01-11T16:38:04;1.10;98.90
674;DHT22;319;48.764;9.174;2024-01-11T16:40:32;1.00;98.90
674;DHT22;319;48.764;9.174;2024-01-11T16:42:59;1.00;99.00